createdAt,value
2022-09-03T00:10:08.566Z,18.7
2022-09-03T00:24:37.517Z,18.9
2022-09-03T00:39:04.294Z,18.6
2022-09-03T00:53:31.694Z,18.3
2022-09-03T01:08:05.099Z,18.1
2022-09-03T01:22:34.591Z,18.2
2022-09-03T01:36:58.902Z,18.3
2022-09-03T01:51:26.610Z,18.4
2022-09-03T02:05:54.058Z,18.1
2022-09-03T02:20:21.646Z,18
2022-09-03T02:34:49.497Z,18.1
2022-09-03T02:49:15.894Z,17.8
2022-09-03T03:03:43.504Z,17.6
2022-09-03T03:18:11.378Z,17.5
2022-09-03T03:32:38.325Z,17.5
2022-09-03T03:47:05.491Z,17.4
2022-09-03T04:01:37.581Z,17.5
2022-09-03T04:16:05.704Z,17.4
2022-09-03T04:30:28.724Z,17.2
2022-09-03T04:44:55.487Z,17.1
2022-09-03T04:59:24.681Z,17.3
2022-09-03T05:13:52.280Z,17
2022-09-03T05:28:17.152Z,17.3
2022-09-03T05:42:45.558Z,17.4
2022-09-03T05:57:12.297Z,17.8
2022-09-03T06:11:46.602Z,18
2022-09-03T06:26:16.779Z,18.3
2022-09-03T06:40:38.567Z,18.3
2022-09-03T06:55:07.576Z,18.8
2022-09-03T07:09:35.819Z,19
2022-09-03T07:24:06.409Z,19.8
2022-09-03T07:38:44.844Z,22.1
2022-09-03T07:53:17.839Z,22
2022-09-03T08:07:47.726Z,23.6
2022-09-03T08:22:10.188Z,24.3
2022-09-03T08:36:38.484Z,24.1
2022-09-03T08:51:06.524Z,24.7
2022-09-03T09:05:37.420Z,25
2022-09-03T09:20:10.178Z,26.1
2022-09-03T09:34:26.356Z,23.7
2022-09-03T09:48:49.498Z,22.9
2022-09-03T10:03:16.426Z,22.7
2022-09-03T10:17:43.619Z,22.9
2022-09-03T10:32:17.560Z,23.5
2022-09-03T10:46:47.888Z,23.4
2022-09-03T11:01:08.621Z,23.6
2022-09-03T11:15:43.405Z,23.8
2022-09-03T11:30:11.700Z,24.1
2022-09-03T11:44:34.282Z,24.6
2022-09-03T11:59:03.028Z,25.3
2022-09-03T12:13:30.605Z,25.1
2022-09-03T12:28:00.404Z,26.2
2022-09-03T12:42:27.190Z,26
2022-09-03T12:56:54.668Z,26.2
2022-09-03T13:11:20.539Z,25.1
2022-09-03T13:25:47.984Z,26
2022-09-03T13:40:15.084Z,26.3
2022-09-03T13:54:49.352Z,25.4
2022-09-03T14:09:16.878Z,25
2022-09-03T14:23:40.820Z,25.6
2022-09-03T14:38:09.395Z,26
2022-09-03T14:52:37.744Z,26.6
2022-09-03T15:07:03.164Z,25.9
2022-09-03T15:21:29.317Z,25.3
2022-09-03T15:35:56.593Z,25.3
2022-09-03T15:50:26.936Z,25.4
2022-09-03T16:04:52.325Z,25.1
2022-09-03T16:19:25.203Z,25.1
2022-09-03T16:33:52.901Z,24.8
2022-09-03T16:48:21.444Z,24.5
2022-09-03T17:02:51.035Z,24.2
2022-09-03T17:17:14.726Z,24.2
2022-09-03T17:31:42.187Z,24.4
2022-09-03T17:46:06.834Z,23.9
2022-09-03T18:00:33.243Z,23.3
2022-09-03T18:15:00.488Z,23.3
2022-09-03T18:29:26.396Z,23.3
2022-09-03T18:43:53.036Z,22.5
2022-09-03T18:58:18.880Z,21.8
2022-09-03T19:12:51.803Z,22.1
2022-09-03T19:27:50.840Z,21.8
2022-09-03T19:42:12.608Z,21.5
2022-09-03T19:56:39.879Z,21
2022-09-03T20:10:59.096Z,21
2022-09-03T20:25:25.553Z,20.8
2022-09-03T20:39:51.556Z,20.6
2022-09-03T20:54:25.938Z,20.4
2022-09-03T21:08:57.164Z,20.6
2022-09-03T21:23:19.640Z,20.5
2022-09-03T21:37:46.103Z,20
2022-09-03T21:52:10.763Z,19.8
2022-09-03T22:06:36.540Z,19.7
2022-09-03T22:21:04.238Z,19.5
2022-09-03T22:35:29.541Z,18.9
2022-09-03T22:49:56.422Z,19.2
2022-09-03T23:04:24.846Z,19.1
2022-09-03T23:18:52.940Z,19.2
2022-09-03T23:33:19.744Z,19
2022-09-03T23:47:46.468Z,18.7
